createdAt,value
2023-05-05T00:01:42.534Z,7.47
2023-05-05T00:04:10.674Z,5.32
2023-05-05T00:06:40.153Z,5.53
2023-05-05T00:09:08.217Z,6.13
2023-05-05T00:11:36.292Z,5.40
2023-05-05T00:14:04.346Z,7.45
2023-05-05T00:16:32.431Z,6.55
2023-05-05T00:19:01.159Z,7.13
2023-05-05T00:21:29.182Z,7.00
2023-05-05T00:23:58.616Z,8.63
2023-05-05T00:26:26.676Z,6.97
2023-05-05T00:28:54.770Z,8.90
2023-05-05T00:31:23.806Z,7.70
2023-05-05T00:33:51.982Z,8.43
2023-05-05T00:36:20.050Z,9.37
2023-05-05T00:42:44.802Z,14.30
2023-05-05T00:45:13.909Z,12.53
2023-05-05T00:47:44.185Z,6.97
2023-05-05T00:50:21.620Z,7.33
2023-05-05T00:52:50.402Z,8.43
2023-05-05T00:55:18.806Z,8.63
2023-05-05T00:57:49.291Z,9.63
2023-05-05T01:00:17.916Z,12.37
2023-05-05T01:02:46.347Z,9.20
2023-05-05T01:05:16.094Z,8.82
2023-05-05T01:07:56.943Z,10.30
2023-05-05T01:10:36.257Z,11.40
2023-05-05T01:13:16.487Z,11.27
2023-05-05T01:15:50.770Z,14.07
2023-05-05T01:18:24.959Z,12.53
2023-05-05T01:20:59.710Z,12.17
2023-05-05T01:23:48.845Z,11.93
2023-05-05T01:26:34.382Z,13.13
2023-05-05T01:29:20.444Z,16.57
2023-05-05T01:31:53.529Z,13.93
2023-05-05T01:34:25.689Z,15.10
2023-05-05T01:36:59.432Z,13.73
2023-05-05T01:39:32.541Z,12.87
2023-05-05T01:42:06.781Z,14.30
2023-05-05T01:44:37.583Z,12.17
2023-05-05T01:47:07.857Z,13.20
2023-05-05T01:49:39.343Z,16.10
2023-05-05T01:52:07.891Z,13.10
2023-05-05T01:54:36.415Z,13.97
2023-05-05T01:57:05.930Z,13.83
2023-05-05T01:59:34.786Z,13.80
2023-05-05T02:02:04.350Z,16.67
2023-05-05T02:04:35.028Z,15.67
2023-05-05T02:07:04.423Z,29.63
2023-05-05T02:09:33.574Z,15.60
2023-05-05T02:12:03.444Z,19.33
2023-05-05T02:14:32.189Z,15.40
2023-05-05T02:17:01.441Z,14.03
2023-05-05T02:19:33.049Z,18.53
2023-05-05T02:22:02.610Z,20.20
2023-05-05T02:24:30.911Z,17.87
2023-05-05T02:27:00.842Z,16.90
2023-05-05T02:29:33.724Z,14.93
2023-05-05T02:32:49.755Z,17.33
2023-05-05T02:35:22.648Z,15.53
2023-05-05T02:37:54.804Z,18.83
2023-05-05T02:40:27.540Z,16.53
2023-05-05T02:42:58.638Z,16.20
2023-05-05T02:45:28.623Z,16.40
2023-05-05T02:47:56.784Z,14.70
2023-05-05T02:50:24.886Z,16.50
2023-05-05T02:52:54.325Z,17.43
2023-05-05T02:55:22.671Z,16.17
2023-05-05T03:07:16.962Z,16.13
2023-05-05T03:09:52.821Z,15.80
2023-05-05T03:12:23.468Z,17.70
2023-05-05T03:14:55.429Z,15.07
2023-05-05T03:17:25.601Z,14.83
2023-05-05T03:19:54.044Z,14.80
2023-05-05T03:22:22.462Z,15.73
2023-05-05T03:24:54.777Z,14.67
2023-05-05T03:27:22.905Z,14.97
2023-05-05T03:29:51.093Z,14.50
2023-05-05T03:32:19.210Z,13.83
2023-05-05T03:34:47.331Z,13.33
2023-05-05T03:37:15.439Z,14.10
2023-05-05T03:39:43.577Z,12.53
2023-05-05T03:42:13.012Z,13.43
2023-05-05T03:44:41.041Z,15.47
2023-05-05T03:47:09.107Z,14.83
2023-05-05T03:49:37.896Z,13.00
2023-05-05T03:52:06.312Z,14.37
2023-05-05T03:54:34.418Z,15.57
2023-05-05T03:57:02.518Z,14.33
2023-05-05T03:59:31.962Z,15.30
2023-05-05T04:02:00.100Z,15.57
2023-05-05T04:04:28.296Z,17.77
2023-05-05T04:06:56.493Z,15.63
2023-05-05T04:09:24.583Z,14.13
2023-05-05T04:11:52.714Z,14.17
2023-05-05T04:14:20.845Z,15.67
2023-05-05T04:16:50.410Z,14.17
2023-05-05T04:19:18.620Z,15.70
2023-05-05T04:21:46.798Z,13.10
2023-05-05T04:35:38.944Z,14.17
2023-05-05T04:57:23.228Z,7.57
2023-05-05T04:59:51.350Z,9.17
2023-05-05T05:02:19.629Z,8.47
2023-05-05T05:04:47.967Z,7.27
2023-05-05T05:07:16.094Z,7.00
2023-05-05T05:09:44.196Z,8.43
2023-05-05T05:12:12.330Z,7.83
2023-05-05T05:14:41.816Z,6.17
2023-05-05T05:17:09.944Z,6.77
2023-05-05T05:19:38.065Z,6.83
2023-05-05T05:22:06.241Z,7.53
2023-05-05T05:24:34.768Z,9.53
2023-05-05T05:27:02.930Z,6.17
2023-05-05T05:37:03.841Z,6.37
2023-05-05T05:39:31.924Z,5.83
2023-05-05T05:42:00.035Z,6.47
2023-05-05T05:44:28.120Z,9.87
2023-05-05T05:46:56.318Z,4.97
2023-05-05T05:49:24.490Z,5.77
2023-05-05T05:51:52.583Z,5.53
2023-05-05T06:01:53.906Z,6.47
2023-05-05T06:04:22.082Z,7.13
2023-05-05T06:06:51.079Z,6.47
2023-05-05T06:09:19.147Z,4.45
2023-05-05T06:11:47.294Z,9.40
2023-05-05T06:14:17.002Z,6.35
2023-05-05T06:16:46.126Z,5.05
2023-05-05T06:19:15.641Z,6.05
2023-05-05T06:21:43.711Z,6.72
2023-05-05T06:24:12.064Z,9.18
2023-05-05T06:26:40.260Z,9.77
2023-05-05T06:29:09.568Z,7.03
2023-05-05T06:31:39.219Z,5.80
2023-05-05T06:34:07.381Z,5.93
2023-05-05T06:36:36.962Z,7.07
2023-05-05T06:39:05.194Z,8.60
2023-05-05T06:41:33.353Z,9.18
2023-05-05T06:44:01.610Z,9.10
2023-05-05T06:46:29.849Z,8.45
2023-05-05T06:48:58.029Z,13.20
2023-05-05T06:51:26.535Z,8.98
2023-05-05T06:53:56.031Z,7.75
2023-05-05T06:56:24.176Z,11.20
2023-05-05T06:58:52.236Z,9.32
2023-05-05T07:01:20.474Z,13.05
2023-05-05T07:03:48.693Z,12.07
2023-05-05T07:06:17.071Z,9.82
2023-05-05T07:08:45.206Z,8.95
2023-05-05T07:11:14.697Z,8.32
2023-05-05T07:13:43.033Z,11.30
2023-05-05T07:16:11.207Z,9.52
2023-05-05T07:18:39.411Z,9.40
2023-05-05T07:21:07.619Z,10.43
2023-05-05T07:23:37.517Z,8.52
2023-05-05T07:26:05.815Z,10.15
2023-05-05T07:28:36.453Z,9.77
2023-05-05T07:31:04.599Z,10.35
2023-05-05T07:33:32.659Z,11.77
2023-05-05T07:36:00.803Z,11.90
2023-05-05T07:38:28.913Z,10.45
2023-05-05T07:40:57.043Z,12.15
2023-05-05T07:43:25.243Z,12.00
2023-05-05T07:45:55.329Z,11.75
2023-05-05T07:48:23.454Z,11.98
2023-05-05T07:50:52.565Z,9.40
2023-05-05T07:53:20.689Z,10.25
2023-05-05T07:55:48.898Z,9.40
2023-05-05T07:58:17.182Z,10.40
2023-05-05T08:00:45.430Z,8.77
2023-05-05T08:03:14.889Z,8.32
2023-05-05T08:05:43.794Z,8.02
2023-05-05T08:08:11.985Z,8.27
2023-05-05T08:10:40.220Z,8.38
2023-05-05T08:13:08.392Z,7.38
2023-05-05T08:15:36.538Z,8.30
2023-05-05T08:18:04.832Z,8.63
2023-05-05T08:20:34.513Z,8.38
2023-05-05T08:23:02.668Z,7.45
2023-05-05T08:25:30.911Z,7.10
2023-05-05T08:27:59.079Z,7.65
2023-05-05T08:30:27.242Z,7.80
2023-05-05T08:32:55.680Z,6.53
2023-05-05T08:35:24.104Z,8.07
2023-05-05T08:37:53.924Z,7.53
2023-05-05T08:40:30.357Z,6.82
2023-05-05T08:44:01.746Z,7.75
2023-05-05T08:46:31.126Z,7.85
2023-05-05T08:48:59.920Z,10.68
2023-05-05T08:51:31.523Z,8.10
2023-05-05T08:54:04.682Z,7.63
2023-05-05T08:56:34.957Z,9.10
2023-05-05T08:59:04.391Z,6.43
2023-05-05T09:01:33.915Z,6.50
2023-05-05T09:04:02.277Z,3.95
2023-05-05T09:06:32.390Z,5.13
2023-05-05T09:09:02.785Z,5.63
2023-05-05T09:11:31.019Z,5.63
2023-05-05T09:13:59.344Z,6.40
2023-05-05T09:16:27.511Z,4.60
2023-05-05T09:19:03.446Z,5.75
2023-05-05T09:32:59.079Z,5.93
2023-05-05T09:50:52.331Z,5.45
2023-05-05T09:53:20.583Z,4.68
2023-05-05T09:55:56.220Z,4.40
2023-05-05T09:58:26.433Z,5.90
2023-05-05T10:00:56.042Z,4.15
2023-05-05T10:03:24.740Z,4.82
2023-05-05T10:05:55.822Z,4.75
2023-05-05T10:08:25.322Z,11.48
2023-05-05T10:10:54.922Z,4.97
2023-05-05T10:13:24.456Z,8.75
2023-05-05T10:15:54.159Z,5.05
2023-05-05T10:18:23.682Z,6.85
2023-05-05T10:20:58.874Z,5.13
2023-05-05T10:23:35.632Z,5.55
2023-05-05T10:26:06.902Z,4.70
2023-05-05T10:28:36.321Z,5.75
2023-05-05T10:31:24.595Z,5.40
2023-05-05T10:33:55.934Z,6.20
2023-05-05T10:36:26.562Z,9.02
2023-05-05T10:38:57.922Z,5.95
2023-05-05T10:41:26.738Z,6.03
2023-05-05T10:43:57.737Z,6.78
2023-05-05T10:46:27.946Z,6.53
2023-05-05T10:49:01.001Z,6.45
2023-05-05T10:51:41.198Z,7.00
2023-05-05T10:54:18.082Z,7.03
2023-05-05T10:56:48.182Z,6.15
2023-05-05T10:59:44.481Z,5.80
2023-05-05T11:02:29.166Z,6.63
2023-05-05T11:05:14.278Z,5.85
2023-05-05T11:07:45.047Z,5.75
2023-05-05T11:10:14.928Z,5.10
2023-05-05T11:13:21.316Z,7.18
2023-05-05T11:15:50.569Z,9.73
2023-05-05T11:18:45.827Z,6.53
2023-05-05T11:21:17.841Z,4.63
2023-05-05T11:23:49.569Z,8.77
2023-05-05T11:26:19.352Z,4.55
2023-05-05T11:28:58.817Z,5.07
2023-05-05T11:31:27.089Z,1.92
2023-05-05T11:33:55.174Z,3.50
2023-05-05T11:36:41.363Z,2.33
2023-05-05T11:39:19.604Z,3.33
2023-05-05T11:42:10.153Z,9.77
2023-05-05T11:44:39.236Z,2.30
2023-05-05T11:47:31.437Z,2.10
2023-05-05T11:49:59.855Z,3.03
2023-05-05T11:52:31.168Z,1.60
2023-05-05T11:55:03.961Z,4.03
2023-05-05T11:57:32.202Z,2.37
2023-05-05T12:00:02.443Z,2.23
2023-05-05T12:02:31.420Z,1.87
2023-05-05T12:05:00.551Z,2.07
2023-05-05T12:07:30.411Z,1.40
2023-05-05T12:09:58.930Z,4.87
2023-05-05T12:12:37.561Z,2.27
2023-05-05T12:15:08.166Z,1.77
2023-05-05T12:17:45.113Z,1.47
2023-05-05T12:20:14.097Z,1.20
2023-05-05T12:22:42.579Z,3.77
2023-05-05T12:25:11.522Z,3.40
2023-05-05T12:27:41.559Z,2.50
2023-05-05T12:30:14.848Z,2.43
2023-05-05T12:32:43.590Z,2.70
2023-05-05T12:35:12.812Z,3.40
2023-05-05T12:37:40.981Z,2.13
2023-05-05T12:40:29.853Z,1.33
2023-05-05T12:42:59.376Z,2.23
2023-05-05T12:45:27.677Z,4.63
2023-05-05T12:47:55.873Z,2.57
2023-05-05T12:50:31.633Z,2.70
2023-05-05T12:52:59.747Z,3.37
2023-05-05T12:55:37.385Z,3.30
2023-05-05T12:58:07.124Z,3.07
2023-05-05T13:00:35.324Z,4.90
2023-05-05T13:03:04.782Z,1.53
2023-05-05T13:05:33.579Z,2.50
2023-05-05T13:08:02.154Z,1.23
2023-05-05T13:10:31.327Z,3.70
2023-05-05T13:12:59.677Z,1.47
2023-05-05T13:15:29.337Z,2.40
2023-05-05T13:18:01.196Z,1.43
2023-05-05T13:20:29.726Z,2.23
2023-05-05T13:22:57.854Z,1.50
2023-05-05T13:40:41.538Z,4.30
2023-05-05T13:43:09.626Z,1.97
2023-05-05T13:45:38.941Z,3.23
2023-05-05T13:48:09.286Z,3.50
2023-05-05T13:50:37.894Z,3.13
2023-05-05T13:53:06.043Z,2.63
2023-05-05T13:55:34.301Z,3.00
2023-05-05T13:58:03.837Z,5.47
2023-05-05T14:00:32.682Z,3.80
2023-05-05T14:03:00.779Z,3.13
2023-05-05T14:05:29.181Z,4.10
2023-05-05T14:07:57.358Z,4.30
2023-05-05T14:10:26.202Z,2.83
2023-05-05T14:12:54.491Z,6.13
2023-05-05T14:15:24.042Z,2.70
2023-05-05T14:17:52.188Z,2.87
2023-05-05T14:20:20.420Z,3.07
2023-05-05T14:22:49.450Z,3.33
2023-05-05T14:25:17.781Z,2.60
2023-05-05T14:27:45.960Z,2.27
2023-05-05T14:30:14.975Z,2.93
2023-05-05T14:32:44.552Z,3.40
2023-05-05T14:35:12.720Z,2.70
2023-05-05T14:37:41.062Z,2.30
2023-05-05T14:40:10.463Z,3.15
2023-05-05T14:42:38.771Z,2.37
2023-05-05T14:45:09.612Z,1.87
2023-05-05T14:47:37.983Z,1.30
2023-05-05T14:50:09.842Z,1.83
2023-05-05T14:52:40.529Z,1.40
2023-05-05T14:55:09.586Z,1.73
2023-05-05T14:57:38.630Z,1.67
2023-05-05T15:00:08.135Z,1.97
2023-05-05T15:02:36.324Z,2.60
2023-05-05T15:05:04.581Z,1.93
2023-05-05T15:07:34.161Z,2.03
2023-05-05T15:10:02.357Z,2.85
2023-05-05T15:12:30.421Z,1.50
2023-05-05T15:14:58.616Z,1.83
2023-05-05T15:17:26.738Z,2.53
2023-05-05T15:19:54.899Z,2.08
2023-05-05T15:22:22.984Z,2.05
2023-05-05T15:24:52.550Z,2.05
2023-05-05T15:27:20.714Z,1.95
2023-05-05T15:29:48.875Z,1.95
2023-05-05T15:32:16.945Z,1.77
2023-05-05T15:34:46.111Z,1.30
2023-05-05T15:37:14.919Z,2.00
2023-05-05T15:39:43.057Z,1.45
2023-05-05T15:42:12.489Z,3.33
2023-05-05T15:44:40.576Z,1.42
2023-05-05T15:47:10.579Z,3.05
2023-05-05T15:49:38.863Z,1.58
2023-05-05T15:52:07.116Z,1.50
2023-05-05T15:54:35.348Z,1.70
2023-05-05T15:57:04.412Z,2.72
2023-05-05T15:59:33.915Z,3.00
2023-05-05T16:02:02.192Z,2.20
2023-05-05T16:04:30.254Z,2.17
2023-05-05T16:06:59.259Z,2.35
2023-05-05T16:09:27.432Z,1.30
2023-05-05T16:11:55.669Z,1.55
2023-05-05T16:14:24.107Z,1.60
2023-05-05T16:16:53.687Z,1.00
2023-05-05T16:19:22.414Z,0.63
2023-05-05T16:21:51.321Z,3.00
2023-05-05T16:24:19.399Z,1.73
2023-05-05T16:26:47.799Z,1.48
2023-05-05T16:29:16.556Z,1.35
2023-05-05T16:31:44.742Z,1.25
2023-05-05T16:34:14.582Z,0.98
2023-05-05T16:36:44.190Z,0.95
2023-05-05T16:39:12.691Z,1.13
2023-05-05T16:41:40.854Z,0.63
2023-05-05T16:44:09.015Z,1.15
2023-05-05T16:46:37.459Z,2.65
2023-05-05T16:49:05.876Z,0.95
2023-05-05T16:51:35.516Z,1.15
2023-05-05T16:54:03.730Z,1.38
2023-05-05T16:56:31.845Z,1.58
2023-05-05T16:59:00.066Z,1.50
2023-05-05T17:01:28.169Z,1.02
2023-05-05T17:04:01.823Z,2.28
2023-05-05T17:06:33.077Z,1.05
2023-05-05T17:09:02.578Z,1.10
2023-05-05T17:11:30.695Z,1.15
2023-05-05T17:13:58.953Z,5.38
2023-05-05T17:16:27.135Z,1.15
2023-05-05T17:18:55.683Z,0.88
2023-05-05T17:21:24.500Z,1.27
2023-05-05T17:23:52.668Z,1.17
2023-05-05T17:26:23.037Z,0.50
2023-05-05T17:28:51.111Z,1.67
2023-05-05T17:31:19.288Z,1.38
2023-05-05T17:33:47.487Z,2.00
2023-05-05T17:36:15.639Z,0.85
2023-05-05T17:38:43.769Z,1.17
2023-05-05T17:41:11.867Z,1.53
2023-05-05T17:43:41.412Z,1.60
2023-05-05T17:46:09.803Z,1.83
2023-05-05T17:48:38.004Z,1.20
2023-05-05T17:51:06.277Z,1.77
2023-05-05T17:53:34.386Z,1.27
2023-05-05T17:56:03.645Z,5.20
2023-05-05T17:58:31.676Z,3.23
2023-05-05T18:01:01.179Z,3.47
2023-05-05T18:03:29.657Z,4.20
2023-05-05T18:05:57.821Z,2.40
2023-05-05T18:08:25.947Z,3.08
2023-05-05T18:10:55.100Z,3.53
2023-05-05T18:13:23.209Z,2.73
2023-05-05T18:15:51.469Z,3.33
2023-05-05T18:18:21.293Z,2.40
2023-05-05T18:20:49.829Z,2.93
2023-05-05T18:23:17.917Z,3.90
2023-05-05T18:25:46.507Z,2.70
2023-05-05T18:28:15.166Z,2.77
2023-05-05T18:30:43.298Z,2.93
2023-05-05T18:33:11.434Z,4.37
2023-05-05T18:35:40.935Z,3.43
2023-05-05T18:38:09.040Z,2.90
2023-05-05T18:40:38.727Z,4.97
2023-05-05T18:43:07.574Z,4.63
2023-05-05T18:45:35.677Z,4.00
2023-05-05T18:48:03.855Z,3.43
2023-05-05T18:50:33.321Z,3.20
2023-05-05T18:53:02.934Z,4.50
2023-05-05T18:55:31.253Z,3.27
2023-05-05T18:57:59.352Z,3.33
2023-05-05T19:00:27.488Z,4.93
2023-05-05T19:02:55.815Z,4.60
2023-05-05T19:05:24.164Z,3.17
2023-05-05T19:07:52.294Z,6.47
2023-05-05T19:10:21.752Z,3.63
2023-05-05T19:12:49.909Z,3.67
2023-05-05T19:15:18.636Z,4.87
2023-05-05T19:17:47.449Z,5.70
2023-05-05T19:20:15.716Z,7.27
2023-05-05T19:22:43.803Z,5.60
2023-05-05T19:25:14.323Z,3.33
2023-05-05T19:27:43.899Z,5.00
2023-05-05T19:30:12.752Z,6.20
2023-05-05T19:32:40.838Z,4.10
2023-05-05T19:35:10.482Z,4.53
2023-05-05T19:37:38.937Z,3.73
2023-05-05T19:40:08.549Z,4.20
2023-05-05T19:42:37.006Z,4.40
2023-05-05T19:45:07.735Z,4.17
2023-05-05T19:47:36.353Z,5.70
2023-05-05T19:50:05.692Z,4.53
2023-05-05T19:52:33.859Z,3.83
2023-05-05T19:55:01.940Z,5.63
2023-05-05T19:57:30.052Z,5.27
2023-05-05T19:59:58.198Z,3.90
2023-05-05T20:02:28.543Z,4.03
2023-05-05T20:04:57.621Z,6.17
2023-05-05T20:07:25.985Z,5.70
2023-05-05T20:09:54.152Z,6.03
2023-05-05T20:12:23.231Z,5.90
2023-05-05T20:14:51.352Z,5.03
2023-05-05T20:17:20.294Z,4.80
2023-05-05T20:19:49.854Z,4.20
2023-05-05T20:22:18.820Z,5.70
2023-05-05T20:24:46.905Z,4.80
2023-05-05T20:27:14.992Z,6.27
2023-05-05T20:29:43.127Z,5.17
2023-05-05T20:32:11.230Z,4.00
2023-05-05T20:34:39.406Z,4.77
2023-05-05T20:37:09.676Z,4.90
2023-05-05T20:39:38.735Z,5.57
2023-05-05T20:42:06.909Z,4.47
2023-05-05T20:44:35.039Z,5.90
2023-05-05T20:47:03.236Z,5.77
2023-05-05T20:49:32.119Z,6.30
2023-05-05T20:52:00.234Z,5.33
2023-05-05T20:54:33.927Z,7.17
2023-05-05T20:57:02.803Z,6.63
2023-05-05T20:59:30.964Z,6.80
2023-05-05T21:01:59.148Z,9.07
2023-05-05T21:04:27.576Z,7.97
2023-05-05T21:06:55.902Z,8.10
2023-05-05T21:09:24.858Z,8.60
2023-05-05T21:11:54.387Z,7.10
2023-05-05T21:14:24.611Z,6.40
2023-05-05T21:16:52.792Z,7.37
2023-05-05T21:19:21.213Z,6.53
2023-05-05T21:21:49.545Z,6.47
2023-05-05T21:24:17.717Z,7.13
2023-05-05T21:26:46.320Z,6.23
2023-05-05T21:29:15.760Z,6.10
2023-05-05T21:31:43.876Z,8.00
2023-05-05T21:34:11.903Z,7.27
2023-05-05T21:36:40.008Z,7.30
2023-05-05T21:39:08.141Z,7.50
2023-05-05T21:41:36.247Z,8.63
2023-05-05T21:44:04.451Z,8.43
2023-05-05T21:46:34.074Z,8.97
2023-05-05T21:49:12.034Z,7.63
2023-05-05T21:51:40.339Z,7.63
2023-05-05T21:54:08.630Z,8.70
2023-05-05T21:56:37.277Z,9.60
2023-05-05T21:59:06.412Z,10.63
2023-05-05T22:01:36.859Z,7.27
2023-05-05T22:04:05.294Z,8.47
2023-05-05T22:06:33.486Z,6.50
2023-05-05T22:09:01.649Z,8.23
2023-05-05T22:11:29.808Z,8.57
2023-05-05T22:13:57.921Z,7.40
2023-05-05T22:16:26.039Z,8.33
2023-05-05T22:18:55.686Z,8.03
2023-05-05T22:21:23.794Z,7.23
2023-05-05T22:23:51.980Z,8.80
2023-05-05T22:26:20.172Z,9.70
2023-05-05T22:28:48.355Z,8.57
2023-05-05T22:31:16.899Z,8.77
2023-05-05T22:33:45.029Z,8.27
2023-05-05T22:36:14.446Z,9.23
2023-05-05T22:38:42.652Z,11.73
2023-05-05T22:41:10.738Z,10.83
2023-05-05T22:43:38.945Z,11.57
2023-05-05T22:46:07.082Z,11.07
2023-05-05T22:48:35.187Z,9.83
2023-05-05T22:51:03.501Z,13.80
2023-05-05T22:53:32.987Z,9.90
2023-05-05T22:56:01.174Z,10.63
2023-05-05T22:58:29.630Z,11.20
2023-05-05T23:00:57.777Z,13.67
2023-05-05T23:03:26.076Z,10.93
2023-05-05T23:05:54.177Z,12.43
2023-05-05T23:08:24.027Z,13.23
2023-05-05T23:10:54.135Z,13.10
2023-05-05T23:13:22.314Z,13.97
2023-05-05T23:15:50.546Z,15.03
2023-05-05T23:18:18.637Z,15.17
2023-05-05T23:20:46.735Z,16.33
2023-05-05T23:23:14.846Z,18.47
2023-05-05T23:25:42.968Z,17.43
2023-05-05T23:28:12.450Z,14.57
2023-05-05T23:30:40.805Z,16.20
2023-05-05T23:33:09.025Z,15.43
2023-05-05T23:35:39.427Z,15.23
2023-05-05T23:38:07.593Z,15.43
2023-05-05T23:40:35.902Z,17.43
2023-05-05T23:43:04.036Z,16.00
2023-05-05T23:45:33.518Z,16.70
2023-05-05T23:48:01.615Z,18.23
2023-05-05T23:50:30.210Z,15.57
2023-05-05T23:52:58.718Z,15.53
2023-05-05T23:55:26.926Z,17.47
2023-05-05T23:57:55.057Z,15.67
